sensor_id;sensor_type;location;lat;lon;timestamp;pressure;altitude;pressure_sealevel;temperature;humidity
6134;BME280;3098;42.678;23.364;2023-03-20T00:00:22;95228.22;;;4.95;100.00
6134;BME280;3098;42.678;23.364;2023-03-20T00:02:50;95224.81;;;4.94;100.00
6134;BME280;3098;42.678;23.364;2023-03-20T00:05:19;95165.19;;;4.54;100.00
6134;BME280;3098;42.678;23.364;2023-03-20T00:07:48;95233.75;;;4.98;100.00
6134;BME280;3098;42.678;23.364;2023-03-20T00:10:18;95165.97;;;4.50;100.00
6134;BME280;3098;42.678;23.364;2023-03-20T00:12:47;95219.28;;;4.86;100.00
6134;BME280;3098;42.678;23.364;2023-03-20T00:15:25;95209.84;;;4.64;100.00
6134;BME280;3098;42.678;23.364;2023-03-20T00:17:52;95236.91;;;4.75;100.00
6134;BME280;3098;42.678;23.364;2023-03-20T00:20:20;95227.69;;;4.57;100.00
6134;BME280;3098;42.678;23.364;2023-03-20T00:22:47;95228.25;;;4.75;100.00
6134;BME280;3098;42.678;23.364;2023-03-20T00:25:18;95230.59;;;4.81;100.00
6134;BME280;3098;42.678;23.364;2023-03-20T00:27:46;95236.63;;;4.72;100.00
6134;BME280;3098;42.678;23.364;2023-03-20T00:30:18;95210.09;;;4.53;100.00
6134;BME280;3098;42.678;23.364;2023-03-20T00:32:47;95219.56;;;4.39;100.00
6134;BME280;3098;42.678;23.364;2023-03-20T00:35:21;95214.53;;;4.37;100.00
6134;BME280;3098;42.678;23.364;2023-03-20T00:37:49;95153.88;;;4.19;100.00
6134;BME280;3098;42.678;23.364;2023-03-20T00:40:18;95218.53;;;4.65;100.00
6134;BME280;3098;42.678;23.364;2023-03-20T00:42:48;95199.84;;;4.51;100.00
6134;BME280;3098;42.678;23.364;2023-03-20T00:45:17;95191.19;;;4.41;100.00
6134;BME280;3098;42.678;23.364;2023-03-20T00:47:47;95201.72;;;4.56;100.00
6134;BME280;3098;42.678;23.364;2023-03-20T00:50:17;95203.28;;;4.47;100.00
6134;BME280;3098;42.678;23.364;2023-03-20T00:52:45;95191.47;;;4.39;100.00
6134;BME280;3098;42.678;23.364;2023-03-20T00:55:13;95219.56;;;4.54;100.00
6134;BME280;3098;42.678;23.364;2023-03-20T00:57:47;95121.28;;;3.84;100.00
6134;BME280;3098;42.678;23.364;2023-03-20T01:00:23;95169.09;;;4.01;100.00
6134;BME280;3098;42.678;23.364;2023-03-20T01:02:54;95213.25;;;4.40;100.00
6134;BME280;3098;42.678;23.364;2023-03-20T01:05:22;95203.00;;;4.43;100.00
6134;BME280;3098;42.678;23.364;2023-03-20T01:07:50;95186.97;;;4.25;100.00
6134;BME280;3098;42.678;23.364;2023-03-20T01:10:17;95123.63;;;3.81;100.00
6134;BME280;3098;42.678;23.364;2023-03-20T01:12:46;95168.56;;;4.10;100.00
6134;BME280;3098;42.678;23.364;2023-03-20T01:15:21;95196.97;;;4.28;100.00
6134;BME280;3098;42.678;23.364;2023-03-20T01:17:49;95184.84;;;4.06;100.00
6134;BME280;3098;42.678;23.364;2023-03-20T01:20:20;95199.28;;;4.09;100.00
6134;BME280;3098;42.678;23.364;2023-03-20T01:22:48;95154.09;;;3.87;100.00
6134;BME280;3098;42.678;23.364;2023-03-20T01:25:15;95099.97;;;3.51;100.00
6134;BME280;3098;42.678;23.364;2023-03-20T01:27:48;95144.91;;;3.79;100.00
6134;BME280;3098;42.678;23.364;2023-03-20T01:30:20;95191.66;;;4.02;100.00
6134;BME280;3098;42.678;23.364;2023-03-20T01:32:47;95179.03;;;3.89;100.00
6134;BME280;3098;42.678;23.364;2023-03-20T01:35:16;95195.59;;;4.10;100.00
6134;BME280;3098;42.678;23.364;2023-03-20T01:37:44;95167.72;;;3.89;100.00
6134;BME280;3098;42.678;23.364;2023-03-20T01:40:22;95186.38;;;3.92;100.00
6134;BME280;3098;42.678;23.364;2023-03-20T01:42:54;95186.38;;;3.97;100.00
6134;BME280;3098;42.678;23.364;2023-03-20T01:45:25;95165.38;;;3.82;100.00
6134;BME280;3098;42.678;23.364;2023-03-20T01:47:52;95168.22;;;3.76;100.00
6134;BME280;3098;42.678;23.364;2023-03-20T01:50:26;95197.16;;;3.96;100.00
6134;BME280;3098;42.678;23.364;2023-03-20T01:52:59;95209.19;;;3.92;100.00
6134;BME280;3098;42.678;23.364;2023-03-20T01:55:27;94976.28;;;2.19;100.00
6134;BME280;3098;42.678;23.364;2023-03-20T01:58:01;95212.28;;;3.69;100.00
6134;BME280;3098;42.678;23.364;2023-03-20T02:00:29;95143.69;;;3.30;100.00
6134;BME280;3098;42.678;23.364;2023-03-20T02:02:57;95211.78;;;3.77;100.00
6134;BME280;3098;42.678;23.364;2023-03-20T02:05:25;95203.13;;;3.76;100.00
6134;BME280;3098;42.678;23.364;2023-03-20T02:08:01;95193.34;;;3.57;100.00
6134;BME280;3098;42.678;23.364;2023-03-20T02:10:34;95176.84;;;3.61;100.00
6134;BME280;3098;42.678;23.364;2023-03-20T02:13:03;95189.22;;;3.76;100.00
6134;BME280;3098;42.678;23.364;2023-03-20T02:15:31;95196.78;;;3.57;100.00
6134;BME280;3098;42.678;23.364;2023-03-20T02:17:59;95173.59;;;3.39;100.00
6134;BME280;3098;42.678;23.364;2023-03-20T02:20:36;95193.88;;;3.59;100.00
6134;BME280;3098;42.678;23.364;2023-03-20T02:23:52;95190.00;;;3.76;100.00
6134;BME280;3098;42.678;23.364;2023-03-20T02:26:29;95204.66;;;3.67;100.00
6134;BME280;3098;42.678;23.364;2023-03-20T02:38:42;95172.78;;;3.28;100.00
6134;BME280;3098;42.678;23.364;2023-03-20T02:41:16;95108.41;;;2.96;100.00
6134;BME280;3098;42.678;23.364;2023-03-20T02:43:52;95200.66;;;3.49;100.00
6134;BME280;3098;42.678;23.364;2023-03-20T02:46:30;95137.63;;;3.24;100.00
6134;BME280;3098;42.678;23.364;2023-03-20T02:49:03;94977.06;;;2.15;100.00
6134;BME280;3098;42.678;23.364;2023-03-20T02:51:38;95129.72;;;3.14;100.00
6134;BME280;3098;42.678;23.364;2023-03-20T02:54:11;95155.19;;;3.24;100.00
6134;BME280;3098;42.678;23.364;2023-03-20T02:56:45;95189.41;;;3.49;100.00
6134;BME280;3098;42.678;23.364;2023-03-20T02:59:21;95181.25;;;3.45;100.00
6134;BME280;3098;42.678;23.364;2023-03-20T03:01:54;95073.69;;;2.68;100.00
6134;BME280;3098;42.678;23.364;2023-03-20T03:04:25;95189.59;;;3.37;100.00
6134;BME280;3098;42.678;23.364;2023-03-20T03:06:55;95184.06;;;3.29;100.00
6134;BME280;3098;42.678;23.364;2023-03-20T03:09:29;95149.09;;;3.08;100.00
6134;BME280;3098;42.678;23.364;2023-03-20T03:12:01;95108.88;;;2.82;100.00
6134;BME280;3098;42.678;23.364;2023-03-20T03:14:34;95180.38;;;3.30;100.00
6134;BME280;3098;42.678;23.364;2023-03-20T03:17:04;95115.44;;;2.90;100.00
6134;BME280;3098;42.678;23.364;2023-03-20T03:19:35;95162.81;;;3.25;100.00
6134;BME280;3098;42.678;23.364;2023-03-20T03:22:03;95093.91;;;2.78;100.00
6134;BME280;3098;42.678;23.364;2023-03-20T03:24:34;95088.41;;;2.74;100.00
6134;BME280;3098;42.678;23.364;2023-03-20T03:27:03;95180.13;;;3.26;100.00
6134;BME280;3098;42.678;23.364;2023-03-20T03:29:35;95183.56;;;3.32;100.00
6134;BME280;3098;42.678;23.364;2023-03-20T03:34:45;95174.34;;;3.29;100.00
6134;BME280;3098;42.678;23.364;2023-03-20T03:37:17;95180.97;;;3.42;100.00
6134;BME280;3098;42.678;23.364;2023-03-20T03:39:51;95178.84;;;3.34;100.00
6134;BME280;3098;42.678;23.364;2023-03-20T03:42:25;95092.25;;;2.62;100.00
6134;BME280;3098;42.678;23.364;2023-03-20T03:44:58;95184.34;;;3.37;100.00
6134;BME280;3098;42.678;23.364;2023-03-20T03:47:31;95185.41;;;3.36;100.00
6134;BME280;3098;42.678;23.364;2023-03-20T03:50:03;95171.97;;;3.23;100.00
6134;BME280;3098;42.678;23.364;2023-03-20T03:52:33;95161.66;;;3.06;100.00
6134;BME280;3098;42.678;23.364;2023-03-20T03:55:06;95160.66;;;3.17;100.00
6134;BME280;3098;42.678;23.364;2023-03-20T03:57:38;95187.50;;;3.34;100.00
6134;BME280;3098;42.678;23.364;2023-03-20T04:00:08;95187.94;;;3.21;100.00
6134;BME280;3098;42.678;23.364;2023-03-20T04:02:37;95169.75;;;3.00;100.00
6134;BME280;3098;42.678;23.364;2023-03-20T04:05:06;95153.19;;;2.89;100.00
6134;BME280;3098;42.678;23.364;2023-03-20T04:07:35;95109.81;;;2.66;100.00
6134;BME280;3098;42.678;23.364;2023-03-20T04:10:05;95130.81;;;2.71;100.00
6134;BME280;3098;42.678;23.364;2023-03-20T04:12:34;95178.09;;;2.97;100.00
6134;BME280;3098;42.678;23.364;2023-03-20T04:15:02;95105.31;;;2.62;100.00
6134;BME280;3098;42.678;23.364;2023-03-20T04:17:32;95169.75;;;3.00;100.00
6134;BME280;3098;42.678;23.364;2023-03-20T04:20:01;95104.09;;;2.33;100.00
6134;BME280;3098;42.678;23.364;2023-03-20T04:22:29;95141.31;;;2.76;100.00
6134;BME280;3098;42.678;23.364;2023-03-20T04:24:59;95175.66;;;2.85;100.00
6134;BME280;3098;42.678;23.364;2023-03-20T04:27:28;95180.41;;;2.88;100.00
6134;BME280;3098;42.678;23.364;2023-03-20T04:29:55;95165.03;;;3.02;100.00
6134;BME280;3098;42.678;23.364;2023-03-20T04:32:22;95131.84;;;2.75;100.00
6134;BME280;3098;42.678;23.364;2023-03-20T04:34:49;95122.44;;;2.74;100.00
6134;BME280;3098;42.678;23.364;2023-03-20T04:37:17;95116.88;;;2.66;100.00
6134;BME280;3098;42.678;23.364;2023-03-20T04:39:44;95168.72;;;3.06;100.00
6134;BME280;3098;42.678;23.364;2023-03-20T04:42:12;95175.03;;;3.10;100.00
6134;BME280;3098;42.678;23.364;2023-03-20T04:44:40;95115.41;;;2.80;100.00
6134;BME280;3098;42.678;23.364;2023-03-20T04:47:07;95130.44;;;3.00;100.00
6134;BME280;3098;42.678;23.364;2023-03-20T04:49:35;95187.00;;;3.42;100.00
6134;BME280;3098;42.678;23.364;2023-03-20T04:52:02;95185.19;;;3.48;100.00
6134;BME280;3098;42.678;23.364;2023-03-20T04:54:29;95146.84;;;3.32;100.00
6134;BME280;3098;42.678;23.364;2023-03-20T04:56:56;95117.66;;;3.18;100.00
6134;BME280;3098;42.678;23.364;2023-03-20T04:59:23;95194.47;;;3.81;100.00
6134;BME280;3098;42.678;23.364;2023-03-20T05:01:52;95194.75;;;3.84;100.00
6134;BME280;3098;42.678;23.364;2023-03-20T05:04:19;95201.88;;;3.99;100.00
6134;BME280;3098;42.678;23.364;2023-03-20T05:06:46;95141.47;;;3.69;100.00
6134;BME280;3098;42.678;23.364;2023-03-20T05:09:13;95208.50;;;4.17;100.00
6134;BME280;3098;42.678;23.364;2023-03-20T05:11:41;95177.75;;;4.07;100.00
6134;BME280;3098;42.678;23.364;2023-03-20T05:14:09;95206.41;;;4.44;100.00
6134;BME280;3098;42.678;23.364;2023-03-20T05:16:36;95206.44;;;4.59;100.00
6134;BME280;3098;42.678;23.364;2023-03-20T05:19:05;95211.16;;;4.67;100.00
6134;BME280;3098;42.678;23.364;2023-03-20T05:21:31;95205.91;;;4.77;100.00
6134;BME280;3098;42.678;23.364;2023-03-20T05:23:59;95217.47;;;4.96;100.00
6134;BME280;3098;42.678;23.364;2023-03-20T05:26:26;95211.63;;;5.19;100.00
6134;BME280;3098;42.678;23.364;2023-03-20T05:28:55;95223.44;;;5.37;100.00
6134;BME280;3098;42.678;23.364;2023-03-20T05:31:22;95140.16;;;5.07;100.00
6134;BME280;3098;42.678;23.364;2023-03-20T05:33:50;95212.50;;;5.79;100.00
6134;BME280;3098;42.678;23.364;2023-03-20T05:36:19;95222.47;;;5.97;98.95
6134;BME280;3098;42.678;23.364;2023-03-20T05:38:46;95220.56;;;6.13;97.02
6134;BME280;3098;42.678;23.364;2023-03-20T05:41:13;95220.22;;;6.29;97.12
6134;BME280;3098;42.678;23.364;2023-03-20T05:43:40;95178.28;;;6.33;95.71
6134;BME280;3098;42.678;23.364;2023-03-20T05:46:07;95222.22;;;7.39;93.32
6134;BME280;3098;42.678;23.364;2023-03-20T05:48:34;95191.13;;;8.21;88.10
6134;BME280;3098;42.678;23.364;2023-03-20T05:51:04;95227.59;;;8.80;80.28
6134;BME280;3098;42.678;23.364;2023-03-20T05:53:33;95225.88;;;8.70;77.44
6134;BME280;3098;42.678;23.364;2023-03-20T05:55:59;95231.75;;;8.06;79.69
6134;BME280;3098;42.678;23.364;2023-03-20T05:58:26;95224.47;;;7.98;80.88
6134;BME280;3098;42.678;23.364;2023-03-20T06:00:54;95229.06;;;9.04;77.25
6134;BME280;3098;42.678;23.364;2023-03-20T06:03:25;95226.53;;;10.00;70.70
6134;BME280;3098;42.678;23.364;2023-03-20T06:05:52;95223.69;;;10.23;68.29
6134;BME280;3098;42.678;23.364;2023-03-20T06:08:19;95196.44;;;10.45;66.76
6134;BME280;3098;42.678;23.364;2023-03-20T06:10:49;95148.72;;;11.20;63.17
6134;BME280;3098;42.678;23.364;2023-03-20T06:13:16;95223.16;;;11.99;59.05
6134;BME280;3098;42.678;23.364;2023-03-20T06:15:43;95199.47;;;10.96;61.69
6134;BME280;3098;42.678;23.364;2023-03-20T06:18:11;95201.59;;;10.86;61.12
6134;BME280;3098;42.678;23.364;2023-03-20T06:20:38;95147.94;;;10.89;61.44
6134;BME280;3098;42.678;23.364;2023-03-20T06:23:06;95225.66;;;12.04;59.21
6134;BME280;3098;42.678;23.364;2023-03-20T06:25:35;95167.72;;;11.44;57.97
6134;BME280;3098;42.678;23.364;2023-03-20T06:28:04;95185.72;;;11.17;58.29
6134;BME280;3098;42.678;23.364;2023-03-20T06:30:31;95171.28;;;9.79;64.33
6134;BME280;3098;42.678;23.364;2023-03-20T06:32:58;95230.13;;;10.80;63.76
6134;BME280;3098;42.678;23.364;2023-03-20T06:35:26;95229.28;;;11.38;61.00
6134;BME280;3098;42.678;23.364;2023-03-20T06:37:55;95168.84;;;11.43;58.74
6134;BME280;3098;42.678;23.364;2023-03-20T06:40:23;95191.19;;;12.81;54.38
6134;BME280;3098;42.678;23.364;2023-03-20T06:42:53;95205.16;;;13.67;51.34
6134;BME280;3098;42.678;23.364;2023-03-20T06:45:22;95234.09;;;14.94;47.29
6134;BME280;3098;42.678;23.364;2023-03-20T06:47:50;95207.78;;;14.05;48.00
6134;BME280;3098;42.678;23.364;2023-03-20T06:50:17;95178.47;;;13.76;48.90
6134;BME280;3098;42.678;23.364;2023-03-20T06:52:46;95181.59;;;14.36;47.74
6134;BME280;3098;42.678;23.364;2023-03-20T06:55:14;95220.91;;;15.10;46.56
6134;BME280;3098;42.678;23.364;2023-03-20T06:57:41;95218.50;;;15.50;43.66
6134;BME280;3098;42.678;23.364;2023-03-20T07:00:10;95209.81;;;16.34;42.98
6134;BME280;3098;42.678;23.364;2023-03-20T07:02:40;95193.63;;;16.95;40.26
6134;BME280;3098;42.678;23.364;2023-03-20T07:05:08;95206.56;;;16.65;40.35
6134;BME280;3098;42.678;23.364;2023-03-20T07:07:35;95189.34;;;17.06;39.09
6134;BME280;3098;42.678;23.364;2023-03-20T07:10:03;95205.59;;;17.84;37.65
6134;BME280;3098;42.678;23.364;2023-03-20T07:12:30;95162.91;;;16.52;39.22
6134;BME280;3098;42.678;23.364;2023-03-20T07:14:57;95174.53;;;16.32;47.77
6134;BME280;3098;42.678;23.364;2023-03-20T07:17:24;95191.75;;;16.31;47.31
6134;BME280;3098;42.678;23.364;2023-03-20T07:19:53;95194.94;;;15.52;45.14
6134;BME280;3098;42.678;23.364;2023-03-20T07:22:23;95166.38;;;14.78;44.35
6134;BME280;3098;42.678;23.364;2023-03-20T07:24:52;95110.59;;;15.67;46.09
6134;BME280;3098;42.678;23.364;2023-03-20T07:27:19;95203.09;;;17.75;41.18
6134;BME280;3098;42.678;23.364;2023-03-20T07:29:46;95203.97;;;17.52;42.82
6134;BME280;3098;42.678;23.364;2023-03-20T07:32:13;95207.22;;;17.57;45.29
6134;BME280;3098;42.678;23.364;2023-03-20T07:34:44;95204.91;;;17.87;39.43
6134;BME280;3098;42.678;23.364;2023-03-20T07:37:13;95188.47;;;17.30;44.51
6134;BME280;3098;42.678;23.364;2023-03-20T07:39:41;95180.19;;;17.07;41.68
6134;BME280;3098;42.678;23.364;2023-03-20T07:42:09;95203.38;;;17.15;41.15
6134;BME280;3098;42.678;23.364;2023-03-20T07:44:36;95138.69;;;16.73;39.62
6134;BME280;3098;42.678;23.364;2023-03-20T07:47:03;95202.00;;;16.53;40.42
6134;BME280;3098;42.678;23.364;2023-03-20T07:49:33;95175.69;;;16.83;39.83
6134;BME280;3098;42.678;23.364;2023-03-20T07:52:02;95218.75;;;16.90;40.21
6134;BME280;3098;42.678;23.364;2023-03-20T07:54:31;95209.47;;;17.55;39.57
6134;BME280;3098;42.678;23.364;2023-03-20T07:56:59;94849.75;;;14.77;39.52
6134;BME280;3098;42.678;23.364;2023-03-20T07:59:26;95041.78;;;16.99;38.73
6134;BME280;3098;42.678;23.364;2023-03-20T08:01:53;95205.81;;;18.57;37.20
6134;BME280;3098;42.678;23.364;2023-03-20T08:04:20;95200.91;;;17.38;39.02
6134;BME280;3098;42.678;23.364;2023-03-20T08:06:48;95177.28;;;17.71;37.81
6134;BME280;3098;42.678;23.364;2023-03-20T08:09:16;95205.66;;;17.01;39.71
6134;BME280;3098;42.678;23.364;2023-03-20T08:11:45;95203.78;;;17.72;38.58
6134;BME280;3098;42.678;23.364;2023-03-20T08:14:14;95209.50;;;18.18;37.55
6134;BME280;3098;42.678;23.364;2023-03-20T08:16:41;95143.78;;;18.47;36.92
6134;BME280;3098;42.678;23.364;2023-03-20T08:19:08;95205.69;;;18.19;37.36
6134;BME280;3098;42.678;23.364;2023-03-20T08:21:35;94995.25;;;16.48;36.98
6134;BME280;3098;42.678;23.364;2023-03-20T08:24:03;95207.34;;;16.65;39.97
6134;BME280;3098;42.678;23.364;2023-03-20T08:26:30;95198.50;;;17.48;39.10
6134;BME280;3098;42.678;23.364;2023-03-20T08:28:58;95208.19;;;18.78;36.28
6134;BME280;3098;42.678;23.364;2023-03-20T08:31:25;95208.25;;;18.47;36.41
6134;BME280;3098;42.678;23.364;2023-03-20T08:33:53;95197.94;;;19.60;34.79
6134;BME280;3098;42.678;23.364;2023-03-20T08:36:21;95170.38;;;18.86;35.15
6134;BME280;3098;42.678;23.364;2023-03-20T08:38:48;95216.34;;;18.81;35.62
6134;BME280;3098;42.678;23.364;2023-03-20T08:41:16;95202.78;;;20.19;34.63
6134;BME280;3098;42.678;23.364;2023-03-20T08:43:43;95202.09;;;21.04;32.80
6134;BME280;3098;42.678;23.364;2023-03-20T08:46:12;95148.03;;;21.64;31.04
6134;BME280;3098;42.678;23.364;2023-03-20T08:48:39;95163.97;;;22.20;30.23
6134;BME280;3098;42.678;23.364;2023-03-20T08:51:06;95172.47;;;22.18;30.16
6134;BME280;3098;42.678;23.364;2023-03-20T08:53:34;95179.41;;;23.60;28.37
6134;BME280;3098;42.678;23.364;2023-03-20T08:56:03;95172.81;;;23.54;28.34
6134;BME280;3098;42.678;23.364;2023-03-20T08:58:30;95197.38;;;22.49;29.32
6134;BME280;3098;42.678;23.364;2023-03-20T09:01:03;95181.91;;;21.21;31.34
6134;BME280;3098;42.678;23.364;2023-03-20T09:03:32;95109.91;;;20.95;31.11
6134;BME280;3098;42.678;23.364;2023-03-20T09:05:59;95170.91;;;20.47;32.60
6134;BME280;3098;42.678;23.364;2023-03-20T09:08:26;95150.66;;;21.20;31.41
6134;BME280;3098;42.678;23.364;2023-03-20T09:10:53;95195.38;;;22.93;29.34
6134;BME280;3098;42.678;23.364;2023-03-20T09:13:20;95149.66;;;22.16;30.06
6134;BME280;3098;42.678;23.364;2023-03-20T09:15:49;95174.00;;;22.16;29.93
6134;BME280;3098;42.678;23.364;2023-03-20T09:18:17;95110.72;;;21.73;29.97
6134;BME280;3098;42.678;23.364;2023-03-20T09:20:47;95180.50;;;23.41;28.73
6134;BME280;3098;42.678;23.364;2023-03-20T09:23:15;95182.13;;;23.71;27.83
6134;BME280;3098;42.678;23.364;2023-03-20T09:25:42;95145.06;;;21.76;29.93
6134;BME280;3098;42.678;23.364;2023-03-20T09:28:09;95173.28;;;22.84;28.93
6134;BME280;3098;42.678;23.364;2023-03-20T09:30:36;95152.44;;;22.88;29.40
6134;BME280;3098;42.678;23.364;2023-03-20T09:33:03;95159.75;;;22.87;29.09
6134;BME280;3098;42.678;23.364;2023-03-20T09:35:30;95167.19;;;23.05;28.38
6134;BME280;3098;42.678;23.364;2023-03-20T09:38:00;95119.06;;;24.06;26.82
6134;BME280;3098;42.678;23.364;2023-03-20T09:40:30;95111.59;;;23.21;27.20
6134;BME280;3098;42.678;23.364;2023-03-20T09:43:05;95157.38;;;23.97;27.19
6134;BME280;3098;42.678;23.364;2023-03-20T09:45:42;95138.44;;;23.86;27.22
6134;BME280;3098;42.678;23.364;2023-03-20T09:48:16;95117.09;;;23.50;27.04
6134;BME280;3098;42.678;23.364;2023-03-20T09:50:54;95086.69;;;21.61;28.91
6134;BME280;3098;42.678;23.364;2023-03-20T09:53:29;94973.38;;;20.77;29.59
6134;BME280;3098;42.678;23.364;2023-03-20T09:55:58;95099.44;;;22.69;28.39
6134;BME280;3098;42.678;23.364;2023-03-20T09:58:29;95023.72;;;21.97;29.76
6134;BME280;3098;42.678;23.364;2023-03-20T10:01:00;95100.28;;;22.91;29.18
6134;BME280;3098;42.678;23.364;2023-03-20T10:03:34;95101.94;;;23.24;28.23
6134;BME280;3098;42.678;23.364;2023-03-20T10:06:05;95063.31;;;24.01;27.05
6134;BME280;3098;42.678;23.364;2023-03-20T10:08:36;95094.59;;;23.24;27.48
6134;BME280;3098;42.678;23.364;2023-03-20T10:11:12;95094.06;;;22.80;27.52
6134;BME280;3098;42.678;23.364;2023-03-20T10:14:01;95080.31;;;22.38;28.92
6134;BME280;3098;42.678;23.364;2023-03-20T10:16:42;95080.53;;;22.73;28.53
6134;BME280;3098;42.678;23.364;2023-03-20T10:19:18;95081.47;;;23.30;28.73
6134;BME280;3098;42.678;23.364;2023-03-20T10:21:50;95083.00;;;23.34;27.48
6134;BME280;3098;42.678;23.364;2023-03-20T10:24:23;95074.19;;;22.51;29.07
6134;BME280;3098;42.678;23.364;2023-03-20T10:26:57;95067.81;;;22.87;28.76
6134;BME280;3098;42.678;23.364;2023-03-20T10:29:34;95077.63;;;23.56;27.35
6134;BME280;3098;42.678;23.364;2023-03-20T10:32:08;95057.69;;;24.93;26.14
6134;BME280;3098;42.678;23.364;2023-03-20T10:34:48;94997.91;;;21.96;28.23
6134;BME280;3098;42.678;23.364;2023-03-20T10:37:31;95067.19;;;21.82;29.42
6134;BME280;3098;42.678;23.364;2023-03-20T10:40:16;95061.31;;;21.69;29.87
6134;BME280;3098;42.678;23.364;2023-03-20T10:42:48;95051.38;;;21.33;29.87
6134;BME280;3098;42.678;23.364;2023-03-20T10:45:26;95050.38;;;22.67;28.73
6134;BME280;3098;42.678;23.364;2023-03-20T10:48:03;94991.00;;;23.24;27.71
6134;BME280;3098;42.678;23.364;2023-03-20T10:50:34;94994.84;;;23.12;27.57
6134;BME280;3098;42.678;23.364;2023-03-20T10:53:04;95024.88;;;22.72;27.89
6134;BME280;3098;42.678;23.364;2023-03-20T10:55:37;95040.72;;;22.66;29.06
6134;BME280;3098;42.678;23.364;2023-03-20T10:58:14;95033.50;;;23.23;28.78
6134;BME280;3098;42.678;23.364;2023-03-20T11:00:44;95029.22;;;23.05;28.15
6134;BME280;3098;42.678;23.364;2023-03-20T11:03:20;95021.84;;;22.91;27.97
6134;BME280;3098;42.678;23.364;2023-03-20T11:05:52;95026.53;;;23.22;27.43
6134;BME280;3098;42.678;23.364;2023-03-20T11:08:22;95025.38;;;23.13;27.78
6134;BME280;3098;42.678;23.364;2023-03-20T11:11:02;95009.69;;;24.72;25.96
6134;BME280;3098;42.678;23.364;2023-03-20T11:13:32;94989.25;;;24.57;26.14
6134;BME280;3098;42.678;23.364;2023-03-20T11:16:16;94983.59;;;25.58;24.39
6134;BME280;3098;42.678;23.364;2023-03-20T11:18:44;95008.41;;;23.48;26.65
6134;BME280;3098;42.678;23.364;2023-03-20T11:21:17;94999.44;;;21.94;28.64
6134;BME280;3098;42.678;23.364;2023-03-20T11:23:45;94974.69;;;22.85;27.62
6134;BME280;3098;42.678;23.364;2023-03-20T11:26:14;94973.97;;;23.73;26.79
6134;BME280;3098;42.678;23.364;2023-03-20T11:28:49;94959.13;;;24.37;25.89
6134;BME280;3098;42.678;23.364;2023-03-20T11:31:19;94920.66;;;24.60;25.88
6134;BME280;3098;42.678;23.364;2023-03-20T11:33:52;94974.97;;;24.39;26.48
6134;BME280;3098;42.678;23.364;2023-03-20T11:36:27;94974.34;;;23.85;26.74
6134;BME280;3098;42.678;23.364;2023-03-20T11:38:59;94971.56;;;21.86;27.74
6134;BME280;3098;42.678;23.364;2023-03-20T11:41:29;94953.81;;;22.64;27.01
6134;BME280;3098;42.678;23.364;2023-03-20T11:43:57;94955.81;;;21.95;27.81
6134;BME280;3098;42.678;23.364;2023-03-20T11:46:24;94934.84;;;22.61;26.58
6134;BME280;3098;42.678;23.364;2023-03-20T11:49:03;94953.00;;;21.23;26.43
6134;BME280;3098;42.678;23.364;2023-03-20T11:51:31;94924.44;;;21.15;26.78
6134;BME280;3098;42.678;23.364;2023-03-20T11:54:01;94940.47;;;22.17;27.02
6134;BME280;3098;42.678;23.364;2023-03-20T11:56:31;94839.09;;;21.47;26.42
6134;BME280;3098;42.678;23.364;2023-03-20T11:59:01;94937.00;;;22.13;25.92
6134;BME280;3098;42.678;23.364;2023-03-20T12:01:38;94914.94;;;22.00;26.10
6134;BME280;3098;42.678;23.364;2023-03-20T12:04:11;94855.59;;;20.84;26.99
6134;BME280;3098;42.678;23.364;2023-03-20T12:06:46;94916.16;;;20.94;27.31
6134;BME280;3098;42.678;23.364;2023-03-20T12:09:25;94849.41;;;21.35;26.82
6134;BME280;3098;42.678;23.364;2023-03-20T12:11:59;94911.72;;;22.88;25.74
6134;BME280;3098;42.678;23.364;2023-03-20T12:14:34;94886.91;;;22.51;24.77
6134;BME280;3098;42.678;23.364;2023-03-20T12:17:28;94904.31;;;23.77;23.87
6134;BME280;3098;42.678;23.364;2023-03-20T12:20:00;94905.63;;;25.07;22.74
6134;BME280;3098;42.678;23.364;2023-03-20T12:22:32;94905.16;;;23.31;24.74
6134;BME280;3098;42.678;23.364;2023-03-20T12:25:07;94888.53;;;23.26;23.63
6134;BME280;3098;42.678;23.364;2023-03-20T12:27:43;94894.22;;;22.40;23.87
6134;BME280;3098;42.678;23.364;2023-03-20T12:30:15;94897.56;;;21.94;24.37
6134;BME280;3098;42.678;23.364;2023-03-20T12:32:49;94892.13;;;21.87;25.22
6134;BME280;3098;42.678;23.364;2023-03-20T12:35:23;94890.81;;;21.56;24.65
6134;BME280;3098;42.678;23.364;2023-03-20T12:37:52;94887.69;;;21.51;25.17
6134;BME280;3098;42.678;23.364;2023-03-20T12:40:23;94885.13;;;21.14;25.06
6134;BME280;3098;42.678;23.364;2023-03-20T12:43:03;94888.44;;;21.00;25.00
6134;BME280;3098;42.678;23.364;2023-03-20T12:45:32;94873.38;;;20.92;25.19
6134;BME280;3098;42.678;23.364;2023-03-20T12:48:21;94884.63;;;21.01;23.97
6134;BME280;3098;42.678;23.364;2023-03-20T12:50:53;94874.91;;;20.90;23.81
6134;BME280;3098;42.678;23.364;2023-03-20T12:53:42;94744.75;;;19.94;24.40
6134;BME280;3098;42.678;23.364;2023-03-20T12:56:22;94771.66;;;19.94;23.99
6134;BME280;3098;42.678;23.364;2023-03-20T12:58:59;94856.84;;;20.94;23.73
6134;BME280;3098;42.678;23.364;2023-03-20T13:01:36;94848.75;;;20.94;23.49
6134;BME280;3098;42.678;23.364;2023-03-20T13:04:22;94851.03;;;20.92;23.65
6134;BME280;3098;42.678;23.364;2023-03-20T13:06:59;94827.91;;;20.87;23.48
6134;BME280;3098;42.678;23.364;2023-03-20T13:09:56;94815.88;;;20.78;23.26
6134;BME280;3098;42.678;23.364;2023-03-20T13:12:34;94841.97;;;21.10;23.74
6134;BME280;3098;42.678;23.364;2023-03-20T13:15:15;94837.78;;;21.24;23.32
6134;BME280;3098;42.678;23.364;2023-03-20T13:17:49;94832.59;;;21.01;23.79
6134;BME280;3098;42.678;23.364;2023-03-20T13:20:23;94831.34;;;20.84;24.05
6134;BME280;3098;42.678;23.364;2023-03-20T13:23:02;94822.25;;;21.03;23.95
6134;BME280;3098;42.678;23.364;2023-03-20T13:25:40;94801.38;;;20.96;23.62
6134;BME280;3098;42.678;23.364;2023-03-20T13:28:15;94814.00;;;21.40;23.56
6134;BME280;3098;42.678;23.364;2023-03-20T13:30:53;94812.94;;;20.97;23.90
6134;BME280;3098;42.678;23.364;2023-03-20T13:33:33;94803.13;;;20.75;23.73
6134;BME280;3098;42.678;23.364;2023-03-20T13:36:12;94815.47;;;21.27;23.97
6134;BME280;3098;42.678;23.364;2023-03-20T13:38:43;94810.25;;;20.97;23.52
6134;BME280;3098;42.678;23.364;2023-03-20T13:41:12;94803.69;;;20.98;23.85
6134;BME280;3098;42.678;23.364;2023-03-20T13:43:44;94746.38;;;20.50;23.73